sensor_id;sensor_type;location;lat;lon;timestamp;temperature;humidity
4406;DHT22;2216;53.806;11.598;2023-04-01T00:00:21;10.50;76.20
4406;DHT22;2216;53.806;11.598;2023-04-01T00:02:47;10.50;76.20
4406;DHT22;2216;53.806;11.598;2023-04-01T00:05:13;10.50;76.30
4406;DHT22;2216;53.806;11.598;2023-04-01T00:07:40;10.50;76.30
4406;DHT22;2216;53.806;11.598;2023-04-01T00:10:07;10.50;76.30
4406;DHT22;2216;53.806;11.598;2023-04-01T00:12:34;10.50;76.30
4406;DHT22;2216;53.806;11.598;2023-04-01T00:15:01;10.50;76.40
4406;DHT22;2216;53.806;11.598;2023-04-01T00:17:27;10.50;78.10
4406;DHT22;2216;53.806;11.598;2023-04-01T00:19:55;10.40;77.80
4406;DHT22;2216;53.806;11.598;2023-04-01T00:22:21;10.40;77.90
4406;DHT22;2216;53.806;11.598;2023-04-01T00:24:47;10.30;78.00
4406;DHT22;2216;53.806;11.598;2023-04-01T00:27:13;10.20;78.40
4406;DHT22;2216;53.806;11.598;2023-04-01T00:29:45;10.10;78.20
4406;DHT22;2216;53.806;11.598;2023-04-01T00:32:12;10.10;77.90
4406;DHT22;2216;53.806;11.598;2023-04-01T00:34:38;10.00;78.30
4406;DHT22;2216;53.806;11.598;2023-04-01T00:37:05;9.90;77.80
4406;DHT22;2216;53.806;11.598;2023-04-01T00:39:33;9.80;77.60
4406;DHT22;2216;53.806;11.598;2023-04-01T00:41:59;9.70;77.90
4406;DHT22;2216;53.806;11.598;2023-04-01T00:44:33;9.60;78.10
4406;DHT22;2216;53.806;11.598;2023-04-01T00:47:00;9.50;77.80
4406;DHT22;2216;53.806;11.598;2023-04-01T00:49:30;9.40;78.30
4406;DHT22;2216;53.806;11.598;2023-04-01T00:52:05;9.30;78.70
4406;DHT22;2216;53.806;11.598;2023-04-01T00:54:33;9.20;78.50
4406;DHT22;2216;53.806;11.598;2023-04-01T00:57:04;9.10;79.20
4406;DHT22;2216;53.806;11.598;2023-04-01T00:59:39;9.10;79.40
4406;DHT22;2216;53.806;11.598;2023-04-01T01:02:08;9.00;79.20
4406;DHT22;2216;53.806;11.598;2023-04-01T01:04:36;8.90;79.30
4406;DHT22;2216;53.806;11.598;2023-04-01T01:09:52;8.80;79.00
4406;DHT22;2216;53.806;11.598;2023-04-01T01:12:34;8.70;78.90
4406;DHT22;2216;53.806;11.598;2023-04-01T01:16:09;8.60;78.90
4406;DHT22;2216;53.806;11.598;2023-04-01T01:18:39;8.50;79.20
4406;DHT22;2216;53.806;11.598;2023-04-01T01:21:42;8.40;79.50
4406;DHT22;2216;53.806;11.598;2023-04-01T01:24:40;8.30;79.60
4406;DHT22;2216;53.806;11.598;2023-04-01T01:27:52;8.30;80.00
4406;DHT22;2216;53.806;11.598;2023-04-01T01:30:42;8.20;80.10
4406;DHT22;2216;53.806;11.598;2023-04-01T01:36:15;8.10;80.20
4406;DHT22;2216;53.806;11.598;2023-04-01T01:38:44;8.00;80.10
4406;DHT22;2216;53.806;11.598;2023-04-01T01:41:11;8.00;79.80
4406;DHT22;2216;53.806;11.598;2023-04-01T01:43:41;8.00;79.90
4406;DHT22;2216;53.806;11.598;2023-04-01T01:46:20;7.90;80.50
4406;DHT22;2216;53.806;11.598;2023-04-01T01:48:49;7.90;81.20
4406;DHT22;2216;53.806;11.598;2023-04-01T01:51:17;7.80;81.40
4406;DHT22;2216;53.806;11.598;2023-04-01T01:53:43;7.80;81.40
4406;DHT22;2216;53.806;11.598;2023-04-01T01:56:10;7.70;81.10
4406;DHT22;2216;53.806;11.598;2023-04-01T01:58:47;7.70;81.50
4406;DHT22;2216;53.806;11.598;2023-04-01T02:01:17;7.70;81.60
4406;DHT22;2216;53.806;11.598;2023-04-01T02:03:46;7.60;81.10
4406;DHT22;2216;53.806;11.598;2023-04-01T02:06:16;7.60;81.00
4406;DHT22;2216;53.806;11.598;2023-04-01T02:08:57;7.60;80.90
4406;DHT22;2216;53.806;11.598;2023-04-01T02:11:36;7.50;81.30
4406;DHT22;2216;53.806;11.598;2023-04-01T02:14:17;7.50;81.00
4406;DHT22;2216;53.806;11.598;2023-04-01T02:19:34;7.40;81.20
4406;DHT22;2216;53.806;11.598;2023-04-01T02:22:10;7.40;81.70
4406;DHT22;2216;53.806;11.598;2023-04-01T02:24:40;7.40;81.90
4406;DHT22;2216;53.806;11.598;2023-04-01T02:27:06;7.30;82.30
4406;DHT22;2216;53.806;11.598;2023-04-01T02:29:34;7.30;82.10
4406;DHT22;2216;53.806;11.598;2023-04-01T02:32:00;7.30;81.80
4406;DHT22;2216;53.806;11.598;2023-04-01T02:34:27;7.20;81.70
4406;DHT22;2216;53.806;11.598;2023-04-01T02:36:55;7.20;81.80
4406;DHT22;2216;53.806;11.598;2023-04-01T02:39:21;7.20;82.00
4406;DHT22;2216;53.806;11.598;2023-04-01T02:41:47;7.10;81.80
4406;DHT22;2216;53.806;11.598;2023-04-01T02:44:14;7.10;81.90
4406;DHT22;2216;53.806;11.598;2023-04-01T02:46:41;7.10;82.40
4406;DHT22;2216;53.806;11.598;2023-04-01T02:49:07;7.00;81.90
4406;DHT22;2216;53.806;11.598;2023-04-01T02:51:33;7.10;82.20
4406;DHT22;2216;53.806;11.598;2023-04-01T02:53:59;7.00;82.10
4406;DHT22;2216;53.806;11.598;2023-04-01T02:56:25;7.00;81.70
4406;DHT22;2216;53.806;11.598;2023-04-01T02:58:51;7.00;81.60
4406;DHT22;2216;53.806;11.598;2023-04-01T03:01:17;7.00;82.40
4406;DHT22;2216;53.806;11.598;2023-04-01T03:03:43;6.90;82.40
4406;DHT22;2216;53.806;11.598;2023-04-01T03:06:11;6.90;82.50
4406;DHT22;2216;53.806;11.598;2023-04-01T03:08:38;6.90;82.60
4406;DHT22;2216;53.806;11.598;2023-04-01T03:11:04;6.90;82.50
4406;DHT22;2216;53.806;11.598;2023-04-01T03:13:30;6.90;82.40
4406;DHT22;2216;53.806;11.598;2023-04-01T03:15:56;6.90;82.40
4406;DHT22;2216;53.806;11.598;2023-04-01T03:18:22;6.80;82.50
4406;DHT22;2216;53.806;11.598;2023-04-01T03:20:48;6.80;82.70
4406;DHT22;2216;53.806;11.598;2023-04-01T03:23:14;6.80;82.90
4406;DHT22;2216;53.806;11.598;2023-04-01T03:25:41;6.60;82.70
4406;DHT22;2216;53.806;11.598;2023-04-01T03:28:07;6.80;83.00
4406;DHT22;2216;53.806;11.598;2023-04-01T03:30:33;6.70;83.20
4406;DHT22;2216;53.806;11.598;2023-04-01T03:32:59;6.70;83.00
4406;DHT22;2216;53.806;11.598;2023-04-01T03:35:26;6.50;82.60
4406;DHT22;2216;53.806;11.598;2023-04-01T03:37:52;6.60;82.60
4406;DHT22;2216;53.806;11.598;2023-04-01T03:40:19;6.60;83.10
4406;DHT22;2216;53.806;11.598;2023-04-01T03:42:45;6.60;82.60
4406;DHT22;2216;53.806;11.598;2023-04-01T03:45:11;6.50;83.20
4406;DHT22;2216;53.806;11.598;2023-04-01T03:47:39;6.50;82.80
4406;DHT22;2216;53.806;11.598;2023-04-01T03:50:06;6.50;82.80
4406;DHT22;2216;53.806;11.598;2023-04-01T03:52:33;6.40;82.80
4406;DHT22;2216;53.806;11.598;2023-04-01T03:55:01;6.40;83.10
4406;DHT22;2216;53.806;11.598;2023-04-01T03:57:27;6.40;83.30
4406;DHT22;2216;53.806;11.598;2023-04-01T03:59:53;6.40;83.70
4406;DHT22;2216;53.806;11.598;2023-04-01T04:02:19;6.30;83.40
4406;DHT22;2216;53.806;11.598;2023-04-01T04:04:45;6.30;83.50
4406;DHT22;2216;53.806;11.598;2023-04-01T04:07:11;6.30;83.20
4406;DHT22;2216;53.806;11.598;2023-04-01T04:09:37;6.30;83.20
4406;DHT22;2216;53.806;11.598;2023-04-01T04:12:03;6.30;84.10
4406;DHT22;2216;53.806;11.598;2023-04-01T04:14:30;6.30;84.30
4406;DHT22;2216;53.806;11.598;2023-04-01T04:16:56;6.20;83.90
4406;DHT22;2216;53.806;11.598;2023-04-01T04:19:22;6.20;84.10
4406;DHT22;2216;53.806;11.598;2023-04-01T04:21:47;6.20;84.20
4406;DHT22;2216;53.806;11.598;2023-04-01T04:24:13;6.20;84.60
4406;DHT22;2216;53.806;11.598;2023-04-01T04:26:39;6.10;84.40
4406;DHT22;2216;53.806;11.598;2023-04-01T04:29:04;6.30;84.40
4406;DHT22;2216;53.806;11.598;2023-04-01T04:31:30;6.10;83.90
4406;DHT22;2216;53.806;11.598;2023-04-01T04:33:56;6.10;83.80
4406;DHT22;2216;53.806;11.598;2023-04-01T04:36:25;6.10;83.80
4406;DHT22;2216;53.806;11.598;2023-04-01T04:38:50;6.10;84.10
4406;DHT22;2216;53.806;11.598;2023-04-01T04:41:18;6.10;84.00
4406;DHT22;2216;53.806;11.598;2023-04-01T04:43:50;6.00;83.90
4406;DHT22;2216;53.806;11.598;2023-04-01T04:46:18;6.10;84.20
4406;DHT22;2216;53.806;11.598;2023-04-01T04:48:44;6.10;84.90
4406;DHT22;2216;53.806;11.598;2023-04-01T04:51:13;6.00;84.50
4406;DHT22;2216;53.806;11.598;2023-04-01T04:53:40;6.00;84.50
4406;DHT22;2216;53.806;11.598;2023-04-01T04:56:06;6.00;84.70
4406;DHT22;2216;53.806;11.598;2023-04-01T04:58:32;5.90;84.60
4406;DHT22;2216;53.806;11.598;2023-04-01T05:00:59;6.00;84.70
4406;DHT22;2216;53.806;11.598;2023-04-01T05:03:24;6.00;84.70
4406;DHT22;2216;53.806;11.598;2023-04-01T05:05:51;6.00;84.20
4406;DHT22;2216;53.806;11.598;2023-04-01T05:08:19;5.90;84.70
4406;DHT22;2216;53.806;11.598;2023-04-01T05:10:46;5.90;84.60
4406;DHT22;2216;53.806;11.598;2023-04-01T05:13:11;6.00;85.00
4406;DHT22;2216;53.806;11.598;2023-04-01T05:15:37;5.90;84.50
4406;DHT22;2216;53.806;11.598;2023-04-01T05:18:03;5.90;85.00
4406;DHT22;2216;53.806;11.598;2023-04-01T05:20:29;5.90;85.00
4406;DHT22;2216;53.806;11.598;2023-04-01T05:22:58;5.90;85.00
4406;DHT22;2216;53.806;11.598;2023-04-01T05:25:25;5.90;84.80
4406;DHT22;2216;53.806;11.598;2023-04-01T05:27:51;5.90;84.90
4406;DHT22;2216;53.806;11.598;2023-04-01T05:30:17;5.90;84.30
4406;DHT22;2216;53.806;11.598;2023-04-01T05:32:43;5.90;84.40
4406;DHT22;2216;53.806;11.598;2023-04-01T05:35:09;5.80;84.50
4406;DHT22;2216;53.806;11.598;2023-04-01T05:37:35;5.90;84.80
4406;DHT22;2216;53.806;11.598;2023-04-01T05:40:01;5.80;84.70
4406;DHT22;2216;53.806;11.598;2023-04-01T05:42:28;5.80;84.60
4406;DHT22;2216;53.806;11.598;2023-04-01T05:44:53;5.80;84.50
4406;DHT22;2216;53.806;11.598;2023-04-01T05:47:21;5.80;85.20
4406;DHT22;2216;53.806;11.598;2023-04-01T05:49:47;5.80;85.10
4406;DHT22;2216;53.806;11.598;2023-04-01T05:52:13;5.80;84.70
4406;DHT22;2216;53.806;11.598;2023-04-01T05:54:39;5.80;84.70
4406;DHT22;2216;53.806;11.598;2023-04-01T05:57:04;5.80;84.90
4406;DHT22;2216;53.806;11.598;2023-04-01T05:59:30;5.80;85.00
4406;DHT22;2216;53.806;11.598;2023-04-01T06:01:56;5.80;84.40
4406;DHT22;2216;53.806;11.598;2023-04-01T06:04:22;5.80;84.40
4406;DHT22;2216;53.806;11.598;2023-04-01T06:06:48;5.80;84.50
4406;DHT22;2216;53.806;11.598;2023-04-01T06:09:16;5.90;84.90
4406;DHT22;2216;53.806;11.598;2023-04-01T06:12:08;6.00;85.00
4406;DHT22;2216;53.806;11.598;2023-04-01T06:15:03;5.80;85.00
4406;DHT22;2216;53.806;11.598;2023-04-01T06:21:08;5.80;84.90
4406;DHT22;2216;53.806;11.598;2023-04-01T06:23:58;5.80;84.70
4406;DHT22;2216;53.806;11.598;2023-04-01T06:26:57;5.80;85.90
4406;DHT22;2216;53.806;11.598;2023-04-01T06:29:50;5.80;84.80
4406;DHT22;2216;53.806;11.598;2023-04-01T06:36:19;5.80;85.90
4406;DHT22;2216;53.806;11.598;2023-04-01T06:42:13;5.80;85.40
4406;DHT22;2216;53.806;11.598;2023-04-01T06:45:06;5.80;85.40
4406;DHT22;2216;53.806;11.598;2023-04-01T06:50:38;5.70;85.40
4406;DHT22;2216;53.806;11.598;2023-04-01T06:56:24;5.80;85.20
4406;DHT22;2216;53.806;11.598;2023-04-01T07:01:35;5.80;84.90
4406;DHT22;2216;53.806;11.598;2023-04-01T07:04:18;5.90;85.10
4406;DHT22;2216;53.806;11.598;2023-04-01T07:06:48;5.90;85.10
4406;DHT22;2216;53.806;11.598;2023-04-01T07:09:21;5.90;85.20
4406;DHT22;2216;53.806;11.598;2023-04-01T07:11:50;5.80;85.00
4406;DHT22;2216;53.806;11.598;2023-04-01T07:14:30;5.80;85.00
4406;DHT22;2216;53.806;11.598;2023-04-01T07:17:12;5.90;85.00
4406;DHT22;2216;53.806;11.598;2023-04-01T07:19:52;5.90;85.00
4406;DHT22;2216;53.806;11.598;2023-04-01T07:22:38;5.90;85.00
4406;DHT22;2216;53.806;11.598;2023-04-01T07:25:17;5.90;85.70
4406;DHT22;2216;53.806;11.598;2023-04-01T07:27:53;5.90;85.10
4406;DHT22;2216;53.806;11.598;2023-04-01T07:30:23;5.90;85.00
4406;DHT22;2216;53.806;11.598;2023-04-01T07:32:59;5.90;84.60
4406;DHT22;2216;53.806;11.598;2023-04-01T07:38:40;5.90;84.90
4406;DHT22;2216;53.806;11.598;2023-04-01T07:45:07;5.90;85.10
4406;DHT22;2216;53.806;11.598;2023-04-01T07:50:31;5.90;85.10
4406;DHT22;2216;53.806;11.598;2023-04-01T08:04:50;5.90;85.10
4406;DHT22;2216;53.806;11.598;2023-04-01T08:07:36;5.90;85.00
4406;DHT22;2216;53.806;11.598;2023-04-01T08:10:13;5.90;85.30
4406;DHT22;2216;53.806;11.598;2023-04-01T08:16:32;5.90;85.10
4406;DHT22;2216;53.806;11.598;2023-04-01T08:19:22;5.90;85.00
4406;DHT22;2216;53.806;11.598;2023-04-01T08:22:20;5.90;85.10
4406;DHT22;2216;53.806;11.598;2023-04-01T08:24:49;6.00;85.20
4406;DHT22;2216;53.806;11.598;2023-04-01T08:27:26;6.00;85.60
4406;DHT22;2216;53.806;11.598;2023-04-01T08:29:59;5.90;85.20
4406;DHT22;2216;53.806;11.598;2023-04-01T08:32:36;5.90;85.60
4406;DHT22;2216;53.806;11.598;2023-04-01T08:35:09;6.00;85.40
4406;DHT22;2216;53.806;11.598;2023-04-01T08:37:44;5.90;85.20
4406;DHT22;2216;53.806;11.598;2023-04-01T08:40:35;6.00;85.30
4406;DHT22;2216;53.806;11.598;2023-04-01T08:43:16;6.00;85.40
4406;DHT22;2216;53.806;11.598;2023-04-01T08:48:51;6.00;85.20
4406;DHT22;2216;53.806;11.598;2023-04-01T08:52:03;6.00;85.50
4406;DHT22;2216;53.806;11.598;2023-04-01T08:54:59;6.00;85.40
4406;DHT22;2216;53.806;11.598;2023-04-01T09:00:33;6.00;85.20
4406;DHT22;2216;53.806;11.598;2023-04-01T09:03:37;6.00;85.00
4406;DHT22;2216;53.806;11.598;2023-04-01T09:06:22;6.00;85.30
4406;DHT22;2216;53.806;11.598;2023-04-01T09:15:28;5.90;85.40
4406;DHT22;2216;53.806;11.598;2023-04-01T09:18:39;5.90;85.20
4406;DHT22;2216;53.806;11.598;2023-04-01T09:36:07;5.80;85.80
4406;DHT22;2216;53.806;11.598;2023-04-01T09:38:54;5.90;85.30
4406;DHT22;2216;53.806;11.598;2023-04-01T09:41:29;5.80;85.20
4406;DHT22;2216;53.806;11.598;2023-04-01T09:44:01;5.80;85.10
4406;DHT22;2216;53.806;11.598;2023-04-01T09:46:51;5.80;85.20
4406;DHT22;2216;53.806;11.598;2023-04-01T10:01:28;5.60;85.70
4406;DHT22;2216;53.806;11.598;2023-04-01T10:04:46;5.60;85.50
4406;DHT22;2216;53.806;11.598;2023-04-01T10:27:57;5.50;85.50
4406;DHT22;2216;53.806;11.598;2023-04-01T10:36:47;5.50;85.40
4406;DHT22;2216;53.806;11.598;2023-04-01T10:40:01;5.50;85.30
4406;DHT22;2216;53.806;11.598;2023-04-01T10:49:10;5.50;85.40
4406;DHT22;2216;53.806;11.598;2023-04-01T10:55:11;5.50;85.60
4406;DHT22;2216;53.806;11.598;2023-04-01T11:03:46;5.60;85.40
4406;DHT22;2216;53.806;11.598;2023-04-01T11:07:05;5.60;85.50
4406;DHT22;2216;53.806;11.598;2023-04-01T11:19:41;5.50;85.50
4406;DHT22;2216;53.806;11.598;2023-04-01T11:25:36;5.60;85.40
4406;DHT22;2216;53.806;11.598;2023-04-01T11:28:40;5.50;85.50
4406;DHT22;2216;53.806;11.598;2023-04-01T11:31:29;5.40;85.50
4406;DHT22;2216;53.806;11.598;2023-04-01T11:34:48;5.40;85.40
4406;DHT22;2216;53.806;11.598;2023-04-01T11:37:29;5.50;85.80
4406;DHT22;2216;53.806;11.598;2023-04-01T11:40:20;5.50;85.60
4406;DHT22;2216;53.806;11.598;2023-04-01T11:45:56;5.50;85.50
4406;DHT22;2216;53.806;11.598;2023-04-01T11:57:27;5.60;85.70
4406;DHT22;2216;53.806;11.598;2023-04-01T12:08:50;5.60;85.00
4406;DHT22;2216;53.806;11.598;2023-04-01T12:17:18;5.60;85.00
4406;DHT22;2216;53.806;11.598;2023-04-01T12:20:16;5.60;85.20
4406;DHT22;2216;53.806;11.598;2023-04-01T12:35:03;5.60;84.60
4406;DHT22;2216;53.806;11.598;2023-04-01T12:37:45;5.60;84.70
4406;DHT22;2216;53.806;11.598;2023-04-01T12:46:50;5.50;84.50
4406;DHT22;2216;53.806;11.598;2023-04-01T12:49:27;5.50;84.60
4406;DHT22;2216;53.806;11.598;2023-04-01T13:01:02;5.50;84.30
4406;DHT22;2216;53.806;11.598;2023-04-01T13:09:20;5.50;84.50
4406;DHT22;2216;53.806;11.598;2023-04-01T13:12:40;5.50;84.50
4406;DHT22;2216;53.806;11.598;2023-04-01T13:15:29;5.50;84.20
4406;DHT22;2216;53.806;11.598;2023-04-01T13:18:31;5.50;84.10
4406;DHT22;2216;53.806;11.598;2023-04-01T13:21:32;5.40;84.00
4406;DHT22;2216;53.806;11.598;2023-04-01T13:24:13;5.40;84.00
4406;DHT22;2216;53.806;11.598;2023-04-01T13:27:39;5.40;84.10
4406;DHT22;2216;53.806;11.598;2023-04-01T13:32:44;5.40;84.10
4406;DHT22;2216;53.806;11.598;2023-04-01T13:35:26;5.40;84.30
4406;DHT22;2216;53.806;11.598;2023-04-01T13:43:23;5.40;84.00
4406;DHT22;2216;53.806;11.598;2023-04-01T13:46:27;5.30;83.90
4406;DHT22;2216;53.806;11.598;2023-04-01T13:49:48;5.30;83.80
4406;DHT22;2216;53.806;11.598;2023-04-01T13:52:31;5.40;83.90
4406;DHT22;2216;53.806;11.598;2023-04-01T13:55:41;5.30;83.70
4406;DHT22;2216;53.806;11.598;2023-04-01T13:58:34;5.30;83.60
4406;DHT22;2216;53.806;11.598;2023-04-01T14:01:15;5.30;83.60
4406;DHT22;2216;53.806;11.598;2023-04-01T14:13:06;5.30;83.60
4406;DHT22;2216;53.806;11.598;2023-04-01T14:16:00;5.20;83.60
4406;DHT22;2216;53.806;11.598;2023-04-01T14:18:41;5.20;83.70
4406;DHT22;2216;53.806;11.598;2023-04-01T14:27:16;5.20;83.50
4406;DHT22;2216;53.806;11.598;2023-04-01T14:30:31;5.20;83.60
4406;DHT22;2216;53.806;11.598;2023-04-01T14:36:34;5.10;83.10
4406;DHT22;2216;53.806;11.598;2023-04-01T14:48:25;5.10;83.10
4406;DHT22;2216;53.806;11.598;2023-04-01T14:51:02;5.00;82.80
4406;DHT22;2216;53.806;11.598;2023-04-01T14:53:37;5.00;82.80
4406;DHT22;2216;53.806;11.598;2023-04-01T14:56:11;5.00;82.90
4406;DHT22;2216;53.806;11.598;2023-04-01T14:58:45;5.10;82.90
4406;DHT22;2216;53.806;11.598;2023-04-01T15:01:54;5.00;82.90
4406;DHT22;2216;53.806;11.598;2023-04-01T15:07:21;5.00;82.80
4406;DHT22;2216;53.806;11.598;2023-04-01T15:13:29;5.00;82.90
4406;DHT22;2216;53.806;11.598;2023-04-01T15:25:42;4.90;82.40
4406;DHT22;2216;53.806;11.598;2023-04-01T15:31:33;4.90;82.30
4406;DHT22;2216;53.806;11.598;2023-04-01T15:37:35;4.80;82.30
4406;DHT22;2216;53.806;11.598;2023-04-01T15:43:49;4.80;82.30
4406;DHT22;2216;53.806;11.598;2023-04-01T15:45:58;4.80;82.20
4406;DHT22;2216;53.806;11.598;2023-04-01T15:51:39;4.80;82.30
4406;DHT22;2216;53.806;11.598;2023-04-01T15:54:37;4.80;82.30
4406;DHT22;2216;53.806;11.598;2023-04-01T15:57:40;4.80;82.20
4406;DHT22;2216;53.806;11.598;2023-04-01T16:00:29;4.80;82.10
4406;DHT22;2216;53.806;11.598;2023-04-01T16:14:33;4.80;82.00
4406;DHT22;2216;53.806;11.598;2023-04-01T16:20:54;4.70;81.90
4406;DHT22;2216;53.806;11.598;2023-04-01T16:23:37;4.70;81.90
4406;DHT22;2216;53.806;11.598;2023-04-01T16:32:00;4.70;81.70
4406;DHT22;2216;53.806;11.598;2023-04-01T16:34:41;4.70;81.60
4406;DHT22;2216;53.806;11.598;2023-04-01T16:37:20;4.70;81.40
4406;DHT22;2216;53.806;11.598;2023-04-01T16:46:27;4.70;81.50
4406;DHT22;2216;53.806;11.598;2023-04-01T16:54:55;4.60;81.30
4406;DHT22;2216;53.806;11.598;2023-04-01T16:57:52;4.60;80.90
4406;DHT22;2216;53.806;11.598;2023-04-01T17:00:29;4.60;81.10
4406;DHT22;2216;53.806;11.598;2023-04-01T17:03:29;4.60;81.60
4406;DHT22;2216;53.806;11.598;2023-04-01T17:06:33;4.60;81.00
4406;DHT22;2216;53.806;11.598;2023-04-01T17:09:24;4.50;81.10
4406;DHT22;2216;53.806;11.598;2023-04-01T17:14:54;4.50;80.70
4406;DHT22;2216;53.806;11.598;2023-04-01T17:18:01;4.50;80.90
4406;DHT22;2216;53.806;11.598;2023-04-01T17:21:00;4.50;80.90
4406;DHT22;2216;53.806;11.598;2023-04-01T17:23:38;4.50;80.30
4406;DHT22;2216;53.806;11.598;2023-04-01T17:26:42;4.40;80.40
4406;DHT22;2216;53.806;11.598;2023-04-01T17:29:43;4.40;80.10
4406;DHT22;2216;53.806;11.598;2023-04-01T17:41:29;4.40;79.80
4406;DHT22;2216;53.806;11.598;2023-04-01T17:47:36;4.30;80.10
4406;DHT22;2216;53.806;11.598;2023-04-01T17:50:20;4.30;79.10
4406;DHT22;2216;53.806;11.598;2023-04-01T17:52:48;4.30;79.60
4406;DHT22;2216;53.806;11.598;2023-04-01T17:58:01;4.30;79.90
4406;DHT22;2216;53.806;11.598;2023-04-01T18:12:16;4.20;79.10
4406;DHT22;2216;53.806;11.598;2023-04-01T18:18:24;4.20;78.50
4406;DHT22;2216;53.806;11.598;2023-04-01T18:21:09;4.10;78.40
4406;DHT22;2216;53.806;11.598;2023-04-01T18:24:00;4.10;78.70
4406;DHT22;2216;53.806;11.598;2023-04-01T18:26:38;4.10;78.10
4406;DHT22;2216;53.806;11.598;2023-04-01T18:30:00;4.10;78.30
4406;DHT22;2216;53.806;11.598;2023-04-01T18:52:53;4.00;78.10
4406;DHT22;2216;53.806;11.598;2023-04-01T18:55:40;3.90;77.60
4406;DHT22;2216;53.806;11.598;2023-04-01T18:58:18;3.90;77.50
4406;DHT22;2216;53.806;11.598;2023-04-01T19:01:09;3.90;77.50
4406;DHT22;2216;53.806;11.598;2023-04-01T19:03:55;3.90;77.30
4406;DHT22;2216;53.806;11.598;2023-04-01T19:06:33;3.90;77.10
4406;DHT22;2216;53.806;11.598;2023-04-01T19:09:18;3.90;77.60
4406;DHT22;2216;53.806;11.598;2023-04-01T19:24:15;3.80;77.00
4406;DHT22;2216;53.806;11.598;2023-04-01T19:27:14;3.80;76.80
4406;DHT22;2216;53.806;11.598;2023-04-01T19:29:59;3.70;77.00
4406;DHT22;2216;53.806;11.598;2023-04-01T19:35:35;3.70;77.30
4406;DHT22;2216;53.806;11.598;2023-04-01T19:44:31;3.70;76.60
4406;DHT22;2216;53.806;11.598;2023-04-01T19:46:42;3.80;76.20
4406;DHT22;2216;53.806;11.598;2023-04-01T19:52:40;3.60;76.50
4406;DHT22;2216;53.806;11.598;2023-04-01T19:58:22;3.70;76.80
4406;DHT22;2216;53.806;11.598;2023-04-01T20:00:53;3.70;76.70
4406;DHT22;2216;53.806;11.598;2023-04-01T20:09:44;3.60;76.70
4406;DHT22;2216;53.806;11.598;2023-04-01T20:12:37;3.60;77.00
4406;DHT22;2216;53.806;11.598;2023-04-01T20:15:36;3.60;76.80
4406;DHT22;2216;53.806;11.598;2023-04-01T20:18:46;3.60;77.00
4406;DHT22;2216;53.806;11.598;2023-04-01T20:23:50;3.60;76.90
4406;DHT22;2216;53.806;11.598;2023-04-01T20:26:29;3.60;77.10
4406;DHT22;2216;53.806;11.598;2023-04-01T20:35:44;3.60;76.70
4406;DHT22;2216;53.806;11.598;2023-04-01T20:38:46;3.60;77.00
4406;DHT22;2216;53.806;11.598;2023-04-01T20:44:54;3.50;76.80
4406;DHT22;2216;53.806;11.598;2023-04-01T20:50:31;3.50;76.90
4406;DHT22;2216;53.806;11.598;2023-04-01T20:56:22;3.40;77.00
4406;DHT22;2216;53.806;11.598;2023-04-01T20:59:28;3.30;76.90
4406;DHT22;2216;53.806;11.598;2023-04-01T21:05:42;3.30;76.90
4406;DHT22;2216;53.806;11.598;2023-04-01T21:14:54;3.20;76.80
4406;DHT22;2216;53.806;11.598;2023-04-01T21:17:59;3.20;76.80
4406;DHT22;2216;53.806;11.598;2023-04-01T21:21:09;3.20;77.00
4406;DHT22;2216;53.806;11.598;2023-04-01T21:24:26;3.10;77.00
4406;DHT22;2216;53.806;11.598;2023-04-01T21:27:15;3.10;76.90
4406;DHT22;2216;53.806;11.598;2023-04-01T22:05:31;2.90;76.90
4406;DHT22;2216;53.806;11.598;2023-04-01T22:08:12;2.90;77.00
4406;DHT22;2216;53.806;11.598;2023-04-01T22:10:53;2.90;77.00
4406;DHT22;2216;53.806;11.598;2023-04-01T22:13:46;2.90;76.90
4406;DHT22;2216;53.806;11.598;2023-04-01T22:16:37;2.90;77.00
4406;DHT22;2216;53.806;11.598;2023-04-01T22:19:17;2.90;77.10
4406;DHT22;2216;53.806;11.598;2023-04-01T22:22:05;2.90;77.10
4406;DHT22;2216;53.806;11.598;2023-04-01T22:24:43;2.90;77.10
4406;DHT22;2216;53.806;11.598;2023-04-01T22:30:21;2.90;77.10
4406;DHT22;2216;53.806;11.598;2023-04-01T22:32:51;2.90;77.20
4406;DHT22;2216;53.806;11.598;2023-04-01T22:35:35;2.90;77.10
4406;DHT22;2216;53.806;11.598;2023-04-01T22:44:02;2.90;76.80
4406;DHT22;2216;53.806;11.598;2023-04-01T22:46:48;2.90;77.00
4406;DHT22;2216;53.806;11.598;2023-04-01T22:49:29;2.90;76.80
4406;DHT22;2216;53.806;11.598;2023-04-01T22:54:43;2.90;76.90
4406;DHT22;2216;53.806;11.598;2023-04-01T22:57:32;2.90;77.00
4406;DHT22;2216;53.806;11.598;2023-04-01T23:00:26;2.90;77.00
4406;DHT22;2216;53.806;11.598;2023-04-01T23:03:21;2.90;76.90
4406;DHT22;2216;53.806;11.598;2023-04-01T23:05:53;2.90;76.90
4406;DHT22;2216;53.806;11.598;2023-04-01T23:08:55;2.90;77.00
4406;DHT22;2216;53.806;11.598;2023-04-01T23:11:41;2.90;76.90
4406;DHT22;2216;53.806;11.598;2023-04-01T23:17:50;2.90;76.80
4406;DHT22;2216;53.806;11.598;2023-04-01T23:20:44;2.90;76.90
4406;DHT22;2216;53.806;11.598;2023-04-01T23:26:34;2.80;76.80
4406;DHT22;2216;53.806;11.598;2023-04-01T23:29:24;2.80;76.80
4406;DHT22;2216;53.806;11.598;2023-04-01T23:32:02;2.80;76.70
4406;DHT22;2216;53.806;11.598;2023-04-01T23:34:33;2.80;76.70
4406;DHT22;2216;53.806;11.598;2023-04-01T23:37:04;2.80;76.80
4406;DHT22;2216;53.806;11.598;2023-04-01T23:39:41;2.70;76.80
4406;DHT22;2216;53.806;11.598;2023-04-01T23:42:32;2.70;76.80
4406;DHT22;2216;53.806;11.598;2023-04-01T23:45:11;2.70;76.60
4406;DHT22;2216;53.806;11.598;2023-04-01T23:47:40;2.70;76.60
4406;DHT22;2216;53.806;11.598;2023-04-01T23:50:23;2.70;76.70
4406;DHT22;2216;53.806;11.598;2023-04-01T23:53:16;2.70;76.80
4406;DHT22;2216;53.806;11.598;2023-04-01T23:55:44;2.70;76.80
4406;DHT22;2216;53.806;11.598;2023-04-01T23:58:41;2.60;76.70
